createdAt,value
2023-04-12T00:00:04.569Z,39.49
2023-04-12T00:00:27.166Z,39.42
2023-04-12T00:00:50.726Z,39.05
2023-04-12T00:01:13.498Z,39.09
2023-04-12T00:01:35.318Z,39.51
2023-04-12T00:01:57.076Z,39.78
2023-04-12T00:02:19.284Z,39.76
2023-04-12T00:02:44.700Z,39.82
2023-04-12T00:03:07.752Z,39.35
2023-04-12T00:03:30.523Z,39.47
2023-04-12T00:03:54.305Z,39.72
2023-04-12T00:04:17.655Z,39.81
2023-04-12T00:04:40.342Z,40.04
2023-04-12T00:05:03.291Z,40.13
2023-04-12T00:05:27.034Z,40.21
2023-04-12T00:05:54.799Z,40.36
2023-04-12T00:06:17.168Z,40.77
2023-04-12T00:06:40.256Z,40.77
2023-04-12T00:07:02.647Z,40.79
2023-04-12T00:07:24.888Z,40.57
2023-04-12T00:07:47.499Z,41.17
2023-04-12T00:08:10.751Z,41.35
2023-04-12T00:08:33.786Z,40.98
2023-04-12T00:08:56.145Z,40.50
2023-04-12T00:09:17.863Z,40.78
2023-04-12T00:09:40.614Z,40.87
2023-04-12T00:10:03.202Z,40.83
2023-04-12T00:10:26.079Z,40.86
2023-04-12T00:10:47.740Z,40.87
2023-04-12T00:11:10.376Z,41.31
2023-04-12T00:11:32.286Z,41.22
2023-04-12T00:11:55.362Z,41.03
2023-04-12T00:12:17.854Z,40.87
2023-04-12T00:12:41.460Z,40.46
2023-04-12T00:13:03.527Z,40.27
2023-04-12T00:13:25.258Z,40.03
2023-04-12T00:13:46.929Z,40.31
2023-04-12T00:14:08.653Z,40.29
2023-04-12T00:14:31.349Z,40.08
2023-04-12T00:14:53.040Z,40.05
2023-04-12T00:15:15.429Z,40.09
2023-04-12T00:15:37.228Z,40.76
2023-04-12T00:16:00.257Z,40.73
2023-04-12T00:16:22.102Z,40.72
2023-04-12T00:16:43.908Z,41.08
2023-04-12T00:17:05.741Z,40.71
2023-04-12T00:17:28.619Z,40.56
2023-04-12T00:17:50.327Z,40.83
2023-04-12T00:18:12.071Z,41.26
2023-04-12T00:18:33.783Z,41.08
2023-04-12T00:18:57.230Z,40.99
2023-04-12T00:19:19.002Z,40.53
2023-04-12T00:19:41.858Z,40.24
2023-04-12T00:20:05.983Z,40.34
2023-04-12T00:21:10.346Z,40.00
2023-04-12T00:21:32.417Z,40.39
2023-04-12T00:21:54.299Z,40.32
2023-04-12T00:22:16.166Z,40.28
2023-04-12T00:22:38.220Z,40.32
2023-04-12T00:23:00.815Z,40.22
2023-04-12T00:23:22.536Z,40.28
2023-04-12T00:23:44.912Z,39.56
2023-04-12T00:24:07.337Z,39.56
2023-04-12T00:24:30.000Z,39.59
2023-04-12T00:24:51.659Z,39.56
2023-04-12T00:25:13.347Z,39.97
2023-04-12T00:25:35.140Z,40.01
2023-04-12T00:25:56.796Z,40.26
2023-04-12T00:26:21.655Z,40.43
2023-04-12T00:26:43.698Z,40.47
2023-04-12T00:27:06.930Z,41.00
2023-04-12T00:27:28.627Z,40.50
2023-04-12T00:27:51.313Z,40.54
2023-04-12T00:28:13.144Z,40.48
2023-04-12T00:28:34.805Z,40.20
2023-04-12T00:28:56.494Z,40.49
2023-04-12T00:29:18.203Z,40.55
2023-04-12T00:29:41.147Z,40.83
2023-04-12T00:30:05.253Z,40.77
2023-04-12T00:30:27.078Z,40.77
2023-04-12T00:30:48.824Z,40.89
2023-04-12T00:31:11.566Z,40.50
2023-04-12T00:31:33.297Z,40.51
2023-04-12T00:31:57.840Z,39.41
2023-04-12T00:32:19.513Z,39.46
2023-04-12T00:32:42.647Z,40.42
2023-04-12T00:33:04.863Z,40.38
2023-04-12T00:33:26.629Z,40.25
2023-04-12T00:33:48.326Z,40.09
2023-04-12T00:34:11.385Z,40.34
2023-04-12T00:34:33.050Z,40.33
2023-04-12T00:34:54.744Z,40.85
2023-04-12T00:35:16.454Z,40.71
2023-04-12T00:35:39.148Z,41.02
2023-04-12T00:36:01.223Z,41.18
2023-04-12T00:36:22.961Z,41.11
2023-04-12T00:36:44.608Z,41.03
2023-04-12T00:37:07.327Z,40.75
2023-04-12T00:37:29.367Z,40.77
2023-04-12T00:37:51.234Z,40.78
2023-04-12T00:38:13.612Z,40.56
2023-04-12T00:38:36.536Z,40.55
2023-04-12T00:38:58.778Z,40.58
2023-04-12T00:39:20.481Z,40.36
2023-04-12T00:39:42.142Z,40.48
2023-04-12T00:40:06.898Z,40.78
2023-04-12T00:40:28.633Z,41.15
2023-04-12T00:40:52.271Z,41.20
2023-04-12T00:41:13.987Z,41.12
2023-04-12T00:41:37.945Z,40.80
2023-04-12T00:42:03.859Z,40.63
2023-04-12T00:42:27.688Z,40.68
2023-04-12T00:42:49.381Z,41.58
2023-04-12T00:43:15.403Z,41.64
2023-04-12T00:43:37.301Z,41.18
2023-04-12T00:43:59.237Z,41.38
2023-04-12T00:44:21.252Z,41.66
2023-04-12T00:44:42.973Z,41.69
2023-04-12T00:45:07.105Z,41.44
2023-04-12T00:45:29.158Z,41.22
2023-04-12T00:45:51.099Z,41.35
2023-04-12T00:46:12.988Z,40.99
2023-04-12T00:46:35.880Z,41.26
2023-04-12T00:46:58.401Z,41.37
2023-04-12T00:47:20.533Z,40.99
2023-04-12T00:47:43.282Z,41.05
2023-04-12T00:48:06.720Z,40.99
2023-04-12T00:48:28.912Z,40.71
2023-04-12T00:48:51.746Z,40.98
2023-04-12T00:49:14.635Z,40.88
2023-04-12T00:49:39.339Z,41.35
2023-04-12T00:50:01.453Z,41.68
2023-04-12T00:50:24.102Z,41.55
2023-04-12T00:50:46.617Z,41.36
2023-04-12T00:51:08.647Z,41.16
2023-04-12T00:51:33.644Z,40.94
2023-04-12T00:51:55.446Z,41.13
2023-04-12T00:52:17.989Z,41.33
2023-04-12T00:52:40.376Z,41.63
2023-04-12T00:53:04.544Z,41.40
2023-04-12T00:53:28.092Z,41.38
2023-04-12T00:53:49.803Z,41.70
2023-04-12T00:54:14.014Z,41.33
2023-04-12T00:54:37.494Z,41.28
2023-04-12T00:54:59.260Z,42.20
2023-04-12T00:55:21.400Z,42.60
2023-04-12T00:55:44.353Z,42.40
2023-04-12T00:56:11.947Z,42.38
2023-04-12T00:56:34.025Z,42.16
2023-04-12T00:56:57.240Z,42.38
2023-04-12T00:57:19.069Z,42.98
2023-04-12T00:57:43.102Z,42.89
2023-04-12T00:58:05.721Z,42.68
2023-04-12T00:58:27.494Z,42.70
2023-04-12T00:58:49.269Z,42.36
2023-04-12T00:59:11.933Z,42.00
2023-04-12T00:59:33.610Z,42.43
2023-04-12T00:59:55.394Z,42.06
2023-04-12T01:00:17.787Z,41.94
2023-04-12T01:00:39.746Z,41.61
2023-04-12T01:01:02.862Z,41.74
2023-04-12T01:01:24.671Z,41.66
2023-04-12T01:01:46.448Z,42.38
2023-04-12T01:02:08.247Z,43.01
2023-04-12T01:02:31.229Z,42.97
2023-04-12T01:02:54.736Z,42.32
2023-04-12T01:03:17.057Z,42.12
2023-04-12T01:03:43.344Z,42.69
2023-04-12T01:04:06.459Z,42.82
2023-04-12T01:04:28.881Z,42.53
2023-04-12T01:04:53.343Z,42.49
2023-04-12T01:05:21.962Z,42.22
2023-04-12T01:05:54.387Z,42.04
2023-04-12T01:06:21.980Z,42.17
2023-04-12T01:07:01.555Z,42.10
2023-04-12T01:07:37.808Z,42.67
2023-04-12T01:08:10.666Z,42.35
2023-04-12T01:08:43.695Z,41.89
2023-04-12T01:09:16.880Z,42.05
2023-04-12T01:09:50.131Z,41.84
2023-04-12T01:10:18.461Z,42.26
2023-04-12T01:10:47.350Z,42.34
2023-04-12T01:11:15.439Z,42.12
2023-04-12T01:11:44.601Z,42.62
2023-04-12T01:12:21.070Z,42.41
2023-04-12T01:12:54.437Z,42.73
2023-04-12T01:13:28.835Z,42.43
2023-04-12T01:13:58.553Z,42.16
2023-04-12T01:14:29.820Z,42.36
2023-04-12T01:14:57.223Z,42.71
2023-04-12T01:15:19.295Z,42.99
2023-04-12T01:15:51.483Z,43.39
2023-04-12T01:16:26.390Z,43.77
2023-04-12T01:16:51.116Z,43.58
2023-04-12T01:17:20.845Z,43.18
2023-04-12T01:17:47.817Z,43.37
2023-04-12T01:18:17.734Z,43.42
2023-04-12T01:18:45.874Z,43.78
2023-04-12T01:19:29.709Z,43.57
2023-04-12T01:19:57.790Z,43.62
2023-04-12T01:20:24.346Z,42.69
2023-04-12T01:20:53.811Z,43.12
2023-04-12T01:21:20.143Z,42.58
2023-04-12T01:21:53.991Z,42.87
2023-04-12T01:22:30.135Z,42.65
2023-04-12T01:23:14.939Z,42.94
2023-04-12T01:23:55.055Z,42.55
2023-04-12T01:24:26.631Z,42.52
2023-04-12T01:25:02.749Z,43.17
2023-04-12T01:25:39.172Z,42.85
2023-04-12T01:26:12.098Z,42.86
2023-04-12T01:26:42.157Z,43.20
2023-04-12T01:27:11.156Z,43.10
2023-04-12T01:27:43.301Z,44.50
2023-04-12T01:28:07.378Z,44.38
2023-04-12T01:28:34.630Z,44.04
2023-04-12T01:28:57.827Z,44.60
2023-04-12T01:29:21.815Z,43.99
2023-04-12T01:29:49.827Z,43.72
2023-04-12T01:30:15.780Z,43.51
2023-04-12T01:30:39.011Z,43.28
2023-04-12T01:31:02.141Z,43.21
2023-04-12T01:31:26.213Z,43.72
2023-04-12T01:31:53.219Z,43.96
2023-04-12T01:32:18.872Z,44.07
2023-04-12T01:32:44.179Z,43.87
2023-04-12T01:33:07.927Z,43.90
2023-04-12T01:33:36.811Z,44.00
2023-04-12T01:34:00.995Z,43.58
2023-04-12T01:34:24.421Z,43.82
2023-04-12T01:34:46.830Z,43.36
2023-04-12T01:35:09.713Z,43.31
2023-04-12T01:35:34.907Z,43.48
2023-04-12T01:36:00.580Z,43.84
2023-04-12T01:36:27.206Z,43.68
2023-04-12T01:36:50.726Z,43.50
2023-04-12T01:37:13.159Z,43.72
2023-04-12T01:37:37.314Z,43.82
2023-04-12T01:38:00.256Z,44.05
2023-04-12T01:38:21.982Z,44.13
2023-04-12T01:38:43.866Z,43.95
2023-04-12T01:39:08.873Z,44.26
2023-04-12T01:39:33.630Z,43.99
2023-04-12T01:39:56.861Z,44.13
2023-04-12T01:40:20.033Z,44.17
2023-04-12T01:40:43.247Z,44.26
2023-04-12T01:41:06.125Z,44.47
2023-04-12T01:41:27.947Z,44.40
2023-04-12T01:41:50.508Z,44.83
2023-04-12T01:42:12.224Z,44.51
2023-04-12T01:42:36.223Z,44.44
2023-04-12T01:43:05.217Z,44.68
2023-04-12T01:43:27.478Z,44.69
2023-04-12T01:43:50.062Z,44.89
2023-04-12T01:44:14.649Z,44.71
2023-04-12T01:44:36.360Z,44.89
2023-04-12T01:44:58.366Z,45.18
2023-04-12T01:45:20.285Z,45.01
2023-04-12T01:45:43.177Z,44.95
2023-04-12T01:46:05.361Z,44.82
2023-04-12T01:46:27.173Z,44.91
2023-04-12T01:46:49.370Z,44.92
2023-04-12T01:47:12.066Z,44.95
2023-04-12T01:47:34.472Z,45.28
2023-04-12T01:47:56.393Z,45.41
2023-04-12T01:48:18.657Z,45.53
2023-04-12T01:48:46.807Z,45.25
2023-04-12T01:49:11.099Z,45.21
2023-04-12T01:49:43.581Z,45.64
2023-04-12T01:50:16.378Z,45.71
2023-04-12T01:50:44.786Z,45.63
2023-04-12T01:51:10.930Z,45.61
2023-04-12T01:51:42.753Z,45.83
2023-04-12T01:52:12.035Z,45.77
2023-04-12T01:52:38.487Z,45.45
2023-04-12T01:53:08.890Z,45.19
2023-04-12T01:53:40.525Z,45.18
2023-04-12T01:54:11.188Z,45.29
2023-04-12T01:54:38.793Z,45.32
2023-04-12T01:55:05.920Z,45.29
2023-04-12T01:55:30.596Z,45.68
2023-04-12T01:55:58.578Z,45.85
2023-04-12T01:56:22.405Z,45.70
2023-04-12T01:56:48.550Z,45.67
2023-04-12T01:57:11.401Z,45.68
2023-04-12T01:57:35.343Z,46.00
2023-04-12T01:57:59.243Z,45.75
2023-04-12T01:58:23.653Z,45.72
2023-04-12T01:58:50.713Z,45.76
2023-04-12T01:59:14.982Z,46.39
2023-04-12T01:59:41.819Z,45.84
2023-04-12T02:00:07.933Z,46.05
2023-04-12T02:00:36.895Z,45.84
2023-04-12T02:01:00.286Z,46.08
2023-04-12T02:01:24.332Z,45.37
2023-04-12T02:01:47.083Z,45.47
2023-04-12T02:02:10.442Z,45.34
2023-04-12T02:02:32.681Z,45.68
2023-04-12T02:02:57.559Z,45.69
2023-04-12T02:03:21.875Z,45.85
2023-04-12T02:03:45.734Z,45.96
2023-04-12T02:04:09.509Z,46.00
2023-04-12T02:04:33.322Z,46.24
2023-04-12T02:04:56.459Z,46.62
2023-04-12T02:05:18.809Z,46.49
2023-04-12T02:05:40.938Z,46.47
2023-04-12T02:06:04.872Z,46.12
2023-04-12T02:06:28.541Z,46.55
2023-04-12T02:06:50.352Z,46.68
2023-04-12T02:07:14.469Z,46.86
2023-04-12T02:07:37.271Z,47.03
2023-04-12T02:08:01.001Z,47.20
2023-04-12T02:08:22.834Z,47.03
2023-04-12T02:08:44.957Z,46.70
2023-04-12T02:09:06.660Z,47.21
2023-04-12T02:09:28.507Z,46.91
2023-04-12T02:09:51.170Z,46.89
2023-04-12T02:10:15.514Z,47.07
2023-04-12T02:10:39.821Z,47.13
2023-04-12T02:11:07.770Z,47.03
2023-04-12T02:11:30.769Z,47.24
2023-04-12T02:11:52.383Z,47.07
2023-04-12T02:12:14.049Z,46.58
2023-04-12T02:12:37.023Z,46.92
2023-04-12T02:13:01.347Z,46.83
2023-04-12T02:13:23.056Z,46.61
2023-04-12T02:13:44.755Z,46.93
2023-04-12T02:14:06.374Z,47.04
2023-04-12T02:14:31.449Z,46.84
2023-04-12T02:14:53.219Z,46.80
2023-04-12T02:15:16.125Z,46.74
2023-04-12T02:15:38.578Z,46.71
2023-04-12T02:16:02.845Z,46.80
2023-04-12T02:16:29.282Z,47.15
2023-04-12T02:16:54.800Z,47.20
2023-04-12T02:17:17.658Z,46.76
2023-04-12T02:17:40.969Z,46.58
2023-04-12T02:18:03.921Z,46.72
2023-04-12T02:18:25.628Z,46.89
2023-04-12T02:18:47.560Z,46.54
2023-04-12T02:19:10.651Z,46.53
2023-04-12T02:19:33.376Z,46.26
2023-04-12T02:19:55.289Z,46.28
2023-04-12T02:20:18.022Z,46.26
2023-04-12T02:20:40.826Z,46.37
2023-04-12T02:21:03.920Z,46.25
2023-04-12T02:21:26.272Z,46.23
2023-04-12T02:21:49.857Z,46.04
2023-04-12T02:22:11.742Z,46.30
2023-04-12T02:22:34.472Z,46.51
2023-04-12T02:22:56.220Z,46.48
2023-04-12T02:23:17.912Z,46.57
2023-04-12T02:23:39.589Z,46.55
2023-04-12T02:24:02.418Z,46.58
2023-04-12T02:24:24.150Z,46.48
2023-04-12T02:24:46.466Z,46.24
2023-04-12T02:25:08.477Z,46.41
2023-04-12T02:25:33.307Z,46.28
2023-04-12T02:25:55.605Z,46.57
2023-04-12T02:26:17.519Z,46.18
2023-04-12T02:26:39.975Z,46.24
2023-04-12T02:27:05.463Z,46.20
2023-04-12T02:27:27.356Z,46.26
2023-04-12T02:27:50.443Z,46.51
2023-04-12T02:28:12.418Z,46.37
2023-04-12T02:28:37.931Z,46.44
2023-04-12T02:29:00.926Z,46.36
2023-04-12T02:29:23.909Z,46.49
2023-04-12T02:29:47.038Z,46.16
2023-04-12T02:30:12.662Z,46.42
2023-04-12T02:30:34.849Z,46.68
2023-04-12T02:30:56.985Z,46.70
2023-04-12T02:31:19.566Z,47.02
2023-04-12T02:31:44.482Z,46.94
2023-04-12T02:32:06.975Z,47.22
2023-04-12T02:32:30.904Z,47.26
2023-04-12T02:32:53.099Z,47.42
2023-04-12T02:33:25.383Z,47.40
2023-04-12T02:33:48.756Z,47.10
2023-04-12T02:34:10.755Z,47.16
2023-04-12T02:34:36.782Z,47.43
2023-04-12T02:35:11.700Z,47.30
2023-04-12T02:35:33.882Z,47.21
2023-04-12T02:36:02.617Z,46.89
2023-04-12T02:36:24.794Z,47.25
2023-04-12T02:36:48.276Z,47.58
2023-04-12T02:37:13.641Z,47.54
2023-04-12T02:37:35.654Z,47.48
2023-04-12T02:37:57.868Z,47.84
2023-04-12T02:38:23.856Z,48.26
2023-04-12T02:38:46.580Z,48.02
2023-04-12T02:39:09.012Z,47.98
2023-04-12T02:39:32.198Z,48.16
2023-04-12T02:39:56.983Z,47.85
2023-04-12T02:40:20.753Z,48.04
2023-04-12T02:40:43.719Z,47.77
2023-04-12T02:41:09.524Z,47.86
2023-04-12T02:41:31.433Z,47.93
2023-04-12T02:41:54.169Z,47.78
2023-04-12T02:42:15.883Z,47.89
2023-04-12T02:42:39.380Z,47.88
2023-04-12T02:43:03.735Z,48.04
2023-04-12T02:43:26.505Z,48.42
2023-04-12T02:43:54.810Z,48.66
2023-04-12T02:44:16.750Z,48.74
2023-04-12T02:44:47.844Z,49.39
2023-04-12T02:45:10.892Z,49.23
2023-04-12T02:45:34.609Z,49.00
2023-04-12T02:45:56.496Z,49.37
2023-04-12T02:46:22.220Z,49.14
2023-04-12T02:46:49.298Z,49.43
2023-04-12T02:47:12.285Z,49.73
2023-04-12T02:47:36.650Z,49.86
2023-04-12T02:47:58.712Z,49.78
2023-04-12T02:48:23.696Z,49.70
2023-04-12T02:48:47.008Z,49.66
2023-04-12T02:49:09.088Z,49.56
2023-04-12T02:49:35.672Z,49.51
2023-04-12T02:49:58.094Z,49.50
2023-04-12T02:50:21.054Z,49.58
2023-04-12T02:50:50.234Z,50.10
2023-04-12T02:51:15.806Z,49.80
2023-04-12T02:51:39.126Z,50.13
2023-04-12T02:52:03.332Z,49.99
2023-04-12T02:52:34.490Z,49.99
2023-04-12T02:53:02.796Z,50.24
2023-04-12T02:53:26.301Z,50.29
2023-04-12T02:54:09.011Z,50.29
2023-04-12T02:54:46.023Z,50.23
2023-04-12T02:55:12.060Z,50.13
2023-04-12T02:55:33.729Z,50.12
2023-04-12T02:56:01.140Z,50.20
2023-04-12T02:56:24.637Z,50.20
2023-04-12T02:56:55.127Z,50.21
2023-04-12T02:57:32.914Z,50.13
2023-04-12T02:57:55.001Z,50.30
2023-04-12T02:58:19.691Z,50.41
2023-04-12T02:58:43.920Z,50.38
2023-04-12T02:59:09.056Z,50.29
2023-04-12T02:59:53.082Z,50.14
2023-04-12T03:00:20.110Z,49.76
2023-04-12T03:00:46.454Z,50.14
2023-04-12T03:01:13.078Z,50.13
2023-04-12T03:01:52.817Z,49.76
2023-04-12T03:02:24.405Z,50.03
2023-04-12T03:02:51.388Z,50.13
2023-04-12T03:03:19.344Z,50.41
2023-04-12T03:03:43.747Z,50.60
2023-04-12T03:04:27.234Z,50.46
2023-04-12T03:04:51.894Z,50.29
2023-04-12T03:05:18.534Z,50.50
2023-04-12T03:05:40.233Z,50.67
2023-04-12T03:06:01.959Z,50.79
2023-04-12T03:06:24.667Z,51.19
2023-04-12T03:06:53.653Z,51.29
2023-04-12T03:07:46.083Z,51.75
2023-04-12T03:08:10.056Z,51.92
2023-04-12T03:08:36.629Z,51.95
2023-04-12T03:08:58.538Z,52.14
2023-04-12T03:09:20.595Z,52.08
2023-04-12T03:09:42.670Z,52.00
2023-04-12T03:10:07.500Z,52.03
2023-04-12T03:10:33.857Z,51.90
2023-04-12T03:10:58.712Z,52.29
2023-04-12T03:11:22.654Z,52.08
2023-04-12T03:11:45.509Z,51.95
2023-04-12T03:12:07.395Z,51.96
2023-04-12T03:12:34.787Z,52.16
2023-04-12T03:13:16.552Z,52.21
2023-04-12T03:13:43.041Z,52.19
2023-04-12T03:14:04.838Z,51.91
2023-04-12T03:14:27.037Z,51.70
2023-04-12T03:14:49.919Z,51.70
2023-04-12T03:15:12.674Z,51.75
2023-04-12T03:15:34.460Z,51.49
2023-04-12T03:15:59.570Z,51.31
2023-04-12T03:16:29.973Z,51.48
2023-04-12T03:17:01.840Z,51.40
2023-04-12T03:17:23.992Z,51.42
2023-04-12T03:17:49.036Z,51.30
2023-04-12T03:18:13.039Z,51.19
2023-04-12T03:18:43.898Z,51.06
2023-04-12T03:19:06.709Z,51.16
2023-04-12T03:19:32.857Z,51.30
2023-04-12T03:19:55.480Z,51.02
2023-04-12T03:20:17.813Z,51.09
2023-04-12T03:20:47.810Z,51.18
2023-04-12T03:21:12.116Z,51.18
2023-04-12T03:21:35.486Z,51.51
2023-04-12T03:21:57.193Z,51.51
2023-04-12T03:22:19.358Z,51.64
2023-04-12T03:22:46.825Z,51.37
2023-04-12T03:23:08.528Z,51.51
2023-04-12T03:23:33.060Z,51.38
2023-04-12T03:24:04.950Z,51.21
2023-04-12T03:24:26.855Z,51.48
2023-04-12T03:24:49.741Z,51.60
2023-04-12T03:25:14.582Z,51.77
2023-04-12T03:25:42.520Z,51.66
2023-04-12T03:26:31.545Z,51.85
2023-04-12T03:26:58.080Z,51.67
2023-04-12T03:27:21.471Z,51.59
2023-04-12T03:27:44.983Z,51.44
2023-04-12T03:28:09.875Z,51.77
2023-04-12T03:28:42.967Z,51.88
2023-04-12T03:29:06.101Z,51.86
2023-04-12T03:29:29.584Z,51.86
2023-04-12T03:29:52.269Z,51.79
2023-04-12T03:30:16.277Z,51.97
2023-04-12T03:30:38.762Z,51.79
2023-04-12T03:31:02.754Z,52.19
2023-04-12T03:31:33.955Z,52.12
2023-04-12T03:32:00.158Z,51.94
2023-04-12T03:32:25.085Z,51.97
2023-04-12T03:32:47.170Z,52.00
2023-04-12T03:33:09.436Z,52.15
2023-04-12T03:33:31.345Z,52.22
2023-04-12T03:33:58.376Z,52.22
2023-04-12T03:34:20.796Z,52.24
2023-04-12T03:34:47.169Z,52.28
2023-04-12T03:35:12.031Z,52.14
2023-04-12T03:35:37.285Z,52.10
2023-04-12T03:35:59.440Z,52.03
2023-04-12T03:36:23.170Z,51.83
2023-04-12T03:36:50.949Z,51.74
2023-04-12T03:37:26.095Z,52.03
2023-04-12T03:37:52.033Z,51.99
2023-04-12T03:38:13.804Z,52.25
2023-04-12T03:38:38.039Z,52.16
2023-04-12T03:39:02.200Z,52.19
2023-04-12T03:39:27.469Z,52.51
2023-04-12T03:39:49.200Z,52.51
2023-04-12T03:40:16.484Z,52.74
2023-04-12T03:40:44.839Z,52.75
2023-04-12T03:41:08.140Z,52.60
2023-04-12T03:41:32.405Z,52.69
2023-04-12T03:41:57.120Z,52.62
2023-04-12T03:42:32.899Z,52.47
2023-04-12T03:43:01.764Z,52.37
2023-04-12T03:43:24.433Z,52.38
2023-04-12T03:43:47.474Z,52.26
2023-04-12T03:44:14.615Z,52.07
2023-04-12T03:44:37.434Z,51.95
2023-04-12T03:45:05.523Z,52.34
2023-04-12T03:45:27.591Z,52.44
2023-04-12T03:45:52.818Z,52.16
2023-04-12T03:46:15.614Z,52.08
2023-04-12T03:46:38.532Z,52.32
2023-04-12T03:47:04.299Z,52.24
2023-04-12T03:47:31.673Z,51.95
2023-04-12T03:47:53.637Z,52.11
2023-04-12T03:48:16.759Z,52.10
2023-04-12T03:48:38.587Z,51.85
2023-04-12T03:49:00.745Z,51.93
2023-04-12T03:49:24.271Z,52.00
2023-04-12T03:49:57.538Z,52.14
2023-04-12T03:50:29.570Z,52.02
2023-04-12T03:50:54.601Z,52.16
2023-04-12T03:51:22.109Z,52.30
2023-04-12T03:51:44.012Z,52.46
2023-04-12T03:52:06.495Z,52.36
2023-04-12T03:52:30.534Z,52.32
2023-04-12T03:52:52.406Z,52.46
2023-04-12T03:53:14.339Z,52.30
2023-04-12T03:53:39.354Z,52.15
2023-04-12T03:54:04.363Z,51.97
2023-04-12T03:54:34.944Z,52.08
2023-04-12T03:55:01.157Z,52.10
2023-04-12T03:55:23.930Z,52.02
2023-04-12T03:55:47.658Z,52.05
2023-04-12T03:56:10.166Z,52.00
2023-04-12T03:56:32.078Z,52.00
2023-04-12T03:56:57.705Z,52.27
2023-04-12T03:57:34.848Z,52.17
2023-04-12T03:57:57.908Z,52.33
2023-04-12T03:58:23.845Z,52.48
2023-04-12T03:58:47.044Z,52.43
2023-04-12T03:59:10.297Z,52.15
2023-04-12T03:59:33.459Z,52.22
2023-04-12T03:59:55.993Z,52.20
2023-04-12T04:00:21.325Z,52.17
2023-04-12T04:01:01.628Z,52.04
2023-04-12T04:01:23.793Z,52.06
2023-04-12T04:01:47.715Z,52.07
2023-04-12T04:02:10.663Z,52.11
2023-04-12T04:02:38.982Z,51.96
2023-04-12T04:03:05.661Z,51.73
2023-04-12T04:03:35.397Z,51.40
2023-04-12T04:04:07.631Z,51.77
2023-04-12T04:04:30.045Z,51.48
2023-04-12T04:04:55.457Z,51.47
2023-04-12T04:05:21.974Z,51.63
2023-04-12T04:05:45.217Z,51.97
2023-04-12T04:06:09.292Z,52.29
2023-04-12T04:06:31.132Z,52.58
2023-04-12T04:06:57.805Z,52.64
2023-04-12T04:07:22.197Z,52.67
2023-04-12T04:07:45.810Z,52.62
2023-04-12T04:08:08.841Z,52.50
2023-04-12T04:08:44.682Z,52.41
2023-04-12T04:09:07.431Z,53.05
2023-04-12T04:09:33.099Z,53.23
2023-04-12T04:09:56.108Z,52.95
2023-04-12T04:10:20.407Z,53.04
2023-04-12T04:10:42.774Z,53.02
2023-04-12T04:11:06.663Z,52.69
2023-04-12T04:11:37.653Z,52.64
2023-04-12T04:12:01.602Z,52.35
2023-04-12T04:12:24.202Z,52.27
2023-04-12T04:12:49.210Z,52.44
2023-04-12T04:13:11.851Z,52.36
2023-04-12T04:13:33.625Z,52.56
2023-04-12T04:14:01.148Z,52.66
2023-04-12T04:14:22.849Z,52.60
2023-04-12T04:14:46.688Z,52.53
2023-04-12T04:15:17.538Z,52.72
2023-04-12T04:15:39.560Z,52.61
2023-04-12T04:16:03.814Z,52.48
2023-04-12T04:16:25.613Z,52.74
2023-04-12T04:16:49.839Z,53.19
2023-04-12T04:17:13.387Z,53.13
2023-04-12T04:17:35.162Z,52.66
2023-04-12T04:17:56.959Z,52.60
2023-04-12T04:18:18.639Z,52.56
2023-04-12T04:18:42.123Z,52.60
2023-04-12T04:19:06.239Z,52.70
2023-04-12T04:19:28.222Z,52.81
2023-04-12T04:19:50.207Z,52.82
2023-04-12T04:20:13.633Z,52.84
2023-04-12T04:20:38.848Z,52.76
2023-04-12T04:21:00.822Z,53.06
2023-04-12T04:21:24.166Z,53.10
2023-04-12T04:21:51.033Z,53.17
2023-04-12T04:22:13.961Z,53.20
2023-04-12T04:22:36.813Z,53.19
2023-04-12T04:22:59.559Z,53.09
2023-04-12T04:23:22.136Z,53.16
2023-04-12T04:23:45.355Z,53.14
2023-04-12T04:24:11.184Z,53.01
2023-04-12T04:24:38.946Z,52.82
2023-04-12T04:25:02.936Z,52.75
2023-04-12T04:25:29.950Z,52.79
2023-04-12T04:25:55.869Z,52.71
2023-04-12T04:26:19.016Z,52.69
2023-04-12T04:26:54.272Z,52.76
2023-04-12T04:27:20.497Z,52.57
2023-04-12T04:27:44.929Z,52.39
2023-04-12T04:28:07.690Z,52.32
2023-04-12T04:28:29.382Z,52.34
2023-04-12T04:28:51.727Z,52.52
2023-04-12T04:29:19.420Z,52.37
2023-04-12T04:29:45.546Z,52.49
2023-04-12T04:30:10.495Z,52.50
2023-04-12T04:30:38.825Z,52.48
2023-04-12T04:31:06.134Z,52.49
2023-04-12T04:31:34.552Z,52.61
2023-04-12T04:31:58.823Z,52.53
2023-04-12T04:32:21.532Z,52.34
2023-04-12T04:32:46.089Z,52.22
2023-04-12T04:33:09.005Z,52.24
2023-04-12T04:33:31.603Z,52.20
2023-04-12T04:33:56.312Z,52.68
2023-04-12T04:34:26.418Z,52.80
2023-04-12T04:34:56.122Z,52.52
2023-04-12T04:35:18.344Z,52.65
2023-04-12T04:35:56.469Z,52.78
2023-04-12T04:36:22.270Z,52.77
2023-04-12T04:36:48.215Z,52.87
2023-04-12T04:37:18.866Z,53.01
2023-04-12T04:37:43.487Z,53.50
2023-04-12T04:38:05.173Z,53.56
2023-04-12T04:38:27.041Z,53.65
2023-04-12T04:38:57.276Z,53.49
2023-04-12T04:39:35.073Z,53.38
2023-04-12T04:39:56.988Z,53.27
2023-04-12T04:40:21.177Z,53.22
2023-04-12T04:40:43.089Z,53.05
2023-04-12T04:41:09.069Z,52.91
2023-04-12T04:41:43.204Z,52.74
2023-04-12T04:42:15.614Z,52.54
2023-04-12T04:42:55.146Z,52.69
2023-04-12T04:43:20.175Z,52.87
2023-04-12T04:43:42.996Z,53.08
2023-04-12T04:44:09.547Z,53.07
2023-04-12T04:44:36.001Z,53.39
2023-04-12T04:45:04.374Z,53.45
2023-04-12T04:45:33.618Z,53.50
2023-04-12T04:45:56.863Z,53.67
2023-04-12T04:46:21.953Z,53.54
2023-04-12T04:46:43.651Z,53.86
2023-04-12T04:47:08.476Z,53.74
2023-04-12T04:47:31.315Z,53.59
2023-04-12T04:47:53.658Z,53.60
2023-04-12T04:48:16.325Z,53.61
2023-04-12T04:48:38.074Z,53.64
2023-04-12T04:49:01.086Z,53.42
2023-04-12T04:49:22.792Z,53.54
2023-04-12T04:49:44.762Z,53.77
2023-04-12T04:50:16.545Z,53.74
2023-04-12T04:50:39.377Z,53.86
2023-04-12T04:51:01.701Z,53.79
2023-04-12T04:51:23.406Z,53.60
2023-04-12T04:51:46.964Z,53.49
2023-04-12T04:52:09.382Z,53.44
2023-04-12T04:52:31.105Z,53.37
2023-04-12T04:52:57.667Z,53.28
2023-04-12T04:53:23.077Z,53.26
2023-04-12T04:53:44.750Z,53.26
2023-04-12T04:54:08.458Z,53.18
2023-04-12T04:54:34.524Z,53.10
2023-04-12T04:54:57.856Z,53.10
2023-04-12T04:55:24.612Z,53.21
2023-04-12T04:55:47.713Z,53.21
2023-04-12T04:56:11.984Z,53.45
2023-04-12T04:56:34.247Z,53.38
2023-04-12T04:56:56.388Z,53.20
2023-04-12T04:57:18.136Z,53.27
2023-04-12T04:57:41.063Z,53.08
2023-04-12T04:58:03.053Z,52.89
2023-04-12T04:58:25.200Z,52.96
2023-04-12T04:58:46.982Z,53.00
2023-04-12T04:59:09.823Z,52.83
2023-04-12T04:59:31.517Z,52.80
2023-04-12T05:00:11.464Z,53.20
2023-04-12T05:00:36.188Z,53.13
2023-04-12T05:00:59.956Z,53.01
2023-04-12T05:01:26.194Z,52.87
2023-04-12T05:01:48.763Z,52.69
2023-04-12T05:02:13.224Z,52.83
2023-04-12T05:02:36.947Z,52.91
2023-04-12T05:02:58.701Z,52.80
2023-04-12T05:03:23.324Z,52.89
2023-04-12T05:03:46.270Z,52.92
2023-04-12T05:04:09.201Z,53.05
2023-04-12T05:04:31.400Z,53.09
2023-04-12T05:04:56.262Z,53.26
2023-04-12T05:05:23.139Z,53.51
2023-04-12T05:05:48.988Z,53.54
2023-04-12T05:06:10.747Z,53.45
2023-04-12T05:06:34.893Z,53.48
2023-04-12T05:06:58.088Z,53.27
2023-04-12T05:07:21.371Z,53.09
2023-04-12T05:07:44.462Z,53.21
2023-04-12T05:08:06.164Z,53.20
2023-04-12T05:08:30.629Z,53.27
2023-04-12T05:08:52.473Z,53.50
2023-04-12T05:09:14.557Z,53.64
2023-04-12T05:09:42.591Z,53.30
2023-04-12T05:10:06.482Z,53.38
2023-04-12T05:10:32.517Z,53.50
2023-04-12T05:10:57.734Z,54.32
2023-04-12T05:11:24.439Z,54.17
2023-04-12T05:11:46.609Z,54.17
2023-04-12T05:12:08.362Z,54.53
2023-04-12T05:12:31.366Z,54.30
2023-04-12T05:12:53.068Z,54.19
2023-04-12T05:13:15.888Z,54.31
2023-04-12T05:13:38.284Z,54.32
2023-04-12T05:14:00.470Z,54.34
2023-04-12T05:14:23.445Z,54.40
2023-04-12T05:14:49.892Z,54.77
2023-04-12T05:15:14.761Z,55.14
2023-04-12T05:15:36.673Z,55.15
2023-04-12T05:15:59.316Z,55.27
2023-04-12T05:16:21.056Z,55.34
2023-04-12T05:16:42.873Z,55.69
2023-04-12T05:17:04.664Z,55.63
2023-04-12T05:17:26.972Z,55.53
2023-04-12T05:17:49.675Z,55.71
2023-04-12T05:18:11.417Z,55.45
2023-04-12T05:18:33.201Z,55.41
2023-04-12T05:18:55.152Z,55.32
2023-04-12T05:19:16.923Z,55.14